sensor_id;sensor_type;location;lat;lon;timestamp;temperature;humidity
736;DHT22;352;48.626;9.238;2023-01-19T00:01:40;0.50;99.90
736;DHT22;352;48.626;9.238;2023-01-19T00:04:06;0.50;99.90
736;DHT22;352;48.626;9.238;2023-01-19T00:06:34;0.50;99.90
736;DHT22;352;48.626;9.238;2023-01-19T00:09:02;0.50;99.90
736;DHT22;352;48.626;9.238;2023-01-19T00:11:28;0.40;99.90
736;DHT22;352;48.626;9.238;2023-01-19T00:13:55;0.50;99.90
736;DHT22;352;48.626;9.238;2023-01-19T00:16:23;0.40;99.90
736;DHT22;352;48.626;9.238;2023-01-19T00:18:50;0.40;99.90
736;DHT22;352;48.626;9.238;2023-01-19T00:21:18;0.30;99.90
736;DHT22;352;48.626;9.238;2023-01-19T00:23:47;0.30;99.90
736;DHT22;352;48.626;9.238;2023-01-19T00:26:16;0.30;99.90
736;DHT22;352;48.626;9.238;2023-01-19T00:28:43;0.30;99.90
736;DHT22;352;48.626;9.238;2023-01-19T00:31:10;0.30;99.90
736;DHT22;352;48.626;9.238;2023-01-19T00:33:37;0.30;99.90
736;DHT22;352;48.626;9.238;2023-01-19T00:36:04;0.30;99.90
736;DHT22;352;48.626;9.238;2023-01-19T00:38:31;0.30;99.90
736;DHT22;352;48.626;9.238;2023-01-19T00:40:59;0.30;99.90
736;DHT22;352;48.626;9.238;2023-01-19T00:43:31;0.20;99.90
736;DHT22;352;48.626;9.238;2023-01-19T00:46:05;0.30;99.90
736;DHT22;352;48.626;9.238;2023-01-19T00:48:31;0.20;99.90
736;DHT22;352;48.626;9.238;2023-01-19T00:50:58;0.30;99.90
736;DHT22;352;48.626;9.238;2023-01-19T00:53:25;0.30;99.90
736;DHT22;352;48.626;9.238;2023-01-19T00:55:56;0.30;99.90
736;DHT22;352;48.626;9.238;2023-01-19T00:58:24;0.30;99.90
736;DHT22;352;48.626;9.238;2023-01-19T01:00:52;0.30;99.90
736;DHT22;352;48.626;9.238;2023-01-19T01:03:21;0.30;99.90
736;DHT22;352;48.626;9.238;2023-01-19T01:05:52;0.20;99.90
736;DHT22;352;48.626;9.238;2023-01-19T01:08:19;0.20;99.90
736;DHT22;352;48.626;9.238;2023-01-19T01:10:45;0.20;99.90
736;DHT22;352;48.626;9.238;2023-01-19T01:13:12;0.20;99.90
736;DHT22;352;48.626;9.238;2023-01-19T01:15:40;0.20;99.90
736;DHT22;352;48.626;9.238;2023-01-19T01:18:07;0.20;99.90
736;DHT22;352;48.626;9.238;2023-01-19T01:20:34;0.20;99.90
736;DHT22;352;48.626;9.238;2023-01-19T01:23:02;0.20;99.90
736;DHT22;352;48.626;9.238;2023-01-19T01:25:29;0.20;99.90
736;DHT22;352;48.626;9.238;2023-01-19T01:27:58;0.20;99.90
736;DHT22;352;48.626;9.238;2023-01-19T01:30:25;0.20;99.90
736;DHT22;352;48.626;9.238;2023-01-19T01:32:53;0.20;99.90
736;DHT22;352;48.626;9.238;2023-01-19T01:35:20;0.20;99.90
736;DHT22;352;48.626;9.238;2023-01-19T01:37:46;0.20;99.90
736;DHT22;352;48.626;9.238;2023-01-19T01:40:15;0.10;99.90
736;DHT22;352;48.626;9.238;2023-01-19T01:42:42;0.20;99.90
736;DHT22;352;48.626;9.238;2023-01-19T01:45:25;0.10;99.90
736;DHT22;352;48.626;9.238;2023-01-19T01:47:57;0.20;99.90
736;DHT22;352;48.626;9.238;2023-01-19T01:50:29;0.10;99.90
736;DHT22;352;48.626;9.238;2023-01-19T01:53:00;0.10;99.90
736;DHT22;352;48.626;9.238;2023-01-19T01:55:29;0.10;99.90
736;DHT22;352;48.626;9.238;2023-01-19T01:58:00;0.10;99.90
736;DHT22;352;48.626;9.238;2023-01-19T02:00:29;0.10;99.90
736;DHT22;352;48.626;9.238;2023-01-19T02:03:18;0.00;99.90
736;DHT22;352;48.626;9.238;2023-01-19T02:05:44;0.00;99.90
736;DHT22;352;48.626;9.238;2023-01-19T02:08:14;0.00;99.90
736;DHT22;352;48.626;9.238;2023-01-19T02:10:59;0.00;99.90
736;DHT22;352;48.626;9.238;2023-01-19T02:13:44;0.00;99.90
736;DHT22;352;48.626;9.238;2023-01-19T02:16:13;0.00;99.90
736;DHT22;352;48.626;9.238;2023-01-19T02:18:42;0.00;99.90
736;DHT22;352;48.626;9.238;2023-01-19T02:21:13;0.00;99.90
736;DHT22;352;48.626;9.238;2023-01-19T02:23:45;0.00;99.90
736;DHT22;352;48.626;9.238;2023-01-19T02:26:16;0.00;99.90
736;DHT22;352;48.626;9.238;2023-01-19T02:28:47;0.00;99.90
736;DHT22;352;48.626;9.238;2023-01-19T02:31:15;-0.10;99.90
736;DHT22;352;48.626;9.238;2023-01-19T02:33:42;-0.10;99.90
736;DHT22;352;48.626;9.238;2023-01-19T02:36:10;-0.10;99.90
736;DHT22;352;48.626;9.238;2023-01-19T02:38:39;-0.10;99.90
736;DHT22;352;48.626;9.238;2023-01-19T02:41:09;-0.10;99.90
736;DHT22;352;48.626;9.238;2023-01-19T02:43:37;-0.10;99.90
736;DHT22;352;48.626;9.238;2023-01-19T02:46:05;-0.20;99.90
736;DHT22;352;48.626;9.238;2023-01-19T02:48:32;-0.20;99.90
736;DHT22;352;48.626;9.238;2023-01-19T02:51:01;-0.20;99.90
736;DHT22;352;48.626;9.238;2023-01-19T02:53:41;-0.20;99.90
736;DHT22;352;48.626;9.238;2023-01-19T02:56:25;-0.20;99.90
736;DHT22;352;48.626;9.238;2023-01-19T02:58:59;-0.20;99.90
736;DHT22;352;48.626;9.238;2023-01-19T03:01:35;-0.30;99.90
736;DHT22;352;48.626;9.238;2023-01-19T03:04:10;-0.30;99.90
736;DHT22;352;48.626;9.238;2023-01-19T03:06:42;-0.30;99.90
736;DHT22;352;48.626;9.238;2023-01-19T03:09:12;-0.30;99.90
736;DHT22;352;48.626;9.238;2023-01-19T03:11:47;-0.30;99.90
736;DHT22;352;48.626;9.238;2023-01-19T03:14:19;-0.30;99.90
736;DHT22;352;48.626;9.238;2023-01-19T03:16:50;-0.30;99.90
736;DHT22;352;48.626;9.238;2023-01-19T03:19:22;-0.30;99.90
736;DHT22;352;48.626;9.238;2023-01-19T03:21:56;-0.30;99.90
736;DHT22;352;48.626;9.238;2023-01-19T03:24:24;-0.30;99.90
736;DHT22;352;48.626;9.238;2023-01-19T03:26:57;-0.30;99.90
736;DHT22;352;48.626;9.238;2023-01-19T03:29:28;-0.30;99.90
736;DHT22;352;48.626;9.238;2023-01-19T03:31:58;-0.30;99.90
736;DHT22;352;48.626;9.238;2023-01-19T03:34:26;-0.30;99.90
736;DHT22;352;48.626;9.238;2023-01-19T03:36:57;-0.40;99.90
736;DHT22;352;48.626;9.238;2023-01-19T03:39:26;-0.40;99.90
736;DHT22;352;48.626;9.238;2023-01-19T03:41:56;-0.40;99.90
736;DHT22;352;48.626;9.238;2023-01-19T03:44:25;-0.40;99.90
736;DHT22;352;48.626;9.238;2023-01-19T03:46:54;-0.40;99.90
736;DHT22;352;48.626;9.238;2023-01-19T03:49:22;-0.40;99.90
736;DHT22;352;48.626;9.238;2023-01-19T03:51:49;-0.40;99.90
736;DHT22;352;48.626;9.238;2023-01-19T03:54:17;-0.40;99.90
736;DHT22;352;48.626;9.238;2023-01-19T03:56:43;-0.40;99.90
736;DHT22;352;48.626;9.238;2023-01-19T03:59:11;-0.40;99.90
736;DHT22;352;48.626;9.238;2023-01-19T04:01:41;-0.40;99.90
736;DHT22;352;48.626;9.238;2023-01-19T04:04:08;-0.40;99.90
736;DHT22;352;48.626;9.238;2023-01-19T04:06:35;-0.50;99.90
736;DHT22;352;48.626;9.238;2023-01-19T04:09:01;-0.50;99.90
736;DHT22;352;48.626;9.238;2023-01-19T04:11:28;-0.50;99.90
736;DHT22;352;48.626;9.238;2023-01-19T04:13:55;-0.50;99.90
736;DHT22;352;48.626;9.238;2023-01-19T04:16:23;-0.50;99.90
736;DHT22;352;48.626;9.238;2023-01-19T04:18:50;-0.50;99.90
736;DHT22;352;48.626;9.238;2023-01-19T04:21:17;-0.50;99.90
736;DHT22;352;48.626;9.238;2023-01-19T04:23:44;-0.60;99.90
736;DHT22;352;48.626;9.238;2023-01-19T04:26:11;-0.60;99.90
736;DHT22;352;48.626;9.238;2023-01-19T04:28:38;-0.60;99.90
736;DHT22;352;48.626;9.238;2023-01-19T04:31:06;-0.60;99.90
736;DHT22;352;48.626;9.238;2023-01-19T04:33:34;-0.60;99.90
736;DHT22;352;48.626;9.238;2023-01-19T04:36:01;-0.60;99.90
736;DHT22;352;48.626;9.238;2023-01-19T04:38:28;-0.70;99.90
736;DHT22;352;48.626;9.238;2023-01-19T04:40:55;-0.70;99.90
736;DHT22;352;48.626;9.238;2023-01-19T04:43:22;-0.70;99.90
736;DHT22;352;48.626;9.238;2023-01-19T04:45:49;-0.70;99.90
736;DHT22;352;48.626;9.238;2023-01-19T04:48:17;-0.70;99.90
736;DHT22;352;48.626;9.238;2023-01-19T04:50:45;-0.70;99.90
736;DHT22;352;48.626;9.238;2023-01-19T04:53:12;-0.70;99.90
736;DHT22;352;48.626;9.238;2023-01-19T04:55:40;-0.70;99.90
736;DHT22;352;48.626;9.238;2023-01-19T04:58:07;-0.60;99.90
736;DHT22;352;48.626;9.238;2023-01-19T05:00:34;-0.60;99.90
736;DHT22;352;48.626;9.238;2023-01-19T05:03:01;-0.50;99.90
736;DHT22;352;48.626;9.238;2023-01-19T05:05:28;-0.40;99.90
736;DHT22;352;48.626;9.238;2023-01-19T05:07:56;-0.30;99.90
736;DHT22;352;48.626;9.238;2023-01-19T05:10:22;-0.20;99.90
736;DHT22;352;48.626;9.238;2023-01-19T05:12:49;-0.10;99.90
736;DHT22;352;48.626;9.238;2023-01-19T05:15:16;-0.10;99.90
736;DHT22;352;48.626;9.238;2023-01-19T05:17:43;0.00;99.90
736;DHT22;352;48.626;9.238;2023-01-19T05:20:11;0.10;99.90
736;DHT22;352;48.626;9.238;2023-01-19T05:22:38;0.10;99.90
736;DHT22;352;48.626;9.238;2023-01-19T05:25:07;0.10;99.90
736;DHT22;352;48.626;9.238;2023-01-19T05:27:34;0.10;99.90
736;DHT22;352;48.626;9.238;2023-01-19T05:30:01;0.20;99.90
736;DHT22;352;48.626;9.238;2023-01-19T05:32:29;0.20;99.90
736;DHT22;352;48.626;9.238;2023-01-19T05:34:55;0.30;99.90
736;DHT22;352;48.626;9.238;2023-01-19T05:37:22;0.30;99.90
736;DHT22;352;48.626;9.238;2023-01-19T05:39:49;0.30;99.90
736;DHT22;352;48.626;9.238;2023-01-19T05:42:17;0.30;99.90
736;DHT22;352;48.626;9.238;2023-01-19T05:44:43;0.30;99.90
736;DHT22;352;48.626;9.238;2023-01-19T05:47:10;0.30;99.90
736;DHT22;352;48.626;9.238;2023-01-19T05:49:37;0.30;99.90
736;DHT22;352;48.626;9.238;2023-01-19T05:52:03;0.30;99.90
736;DHT22;352;48.626;9.238;2023-01-19T05:54:30;0.20;99.90
736;DHT22;352;48.626;9.238;2023-01-19T05:56:57;0.20;99.90
736;DHT22;352;48.626;9.238;2023-01-19T05:59:25;0.10;99.90
736;DHT22;352;48.626;9.238;2023-01-19T06:01:52;0.10;99.90
736;DHT22;352;48.626;9.238;2023-01-19T06:04:19;-0.10;99.90
736;DHT22;352;48.626;9.238;2023-01-19T06:06:47;-0.10;99.90
736;DHT22;352;48.626;9.238;2023-01-19T06:09:13;-0.10;99.90
736;DHT22;352;48.626;9.238;2023-01-19T06:11:41;-0.10;99.90
736;DHT22;352;48.626;9.238;2023-01-19T06:14:08;-0.20;99.90
736;DHT22;352;48.626;9.238;2023-01-19T06:16:36;-0.20;99.90
736;DHT22;352;48.626;9.238;2023-01-19T06:19:03;-0.30;99.90
736;DHT22;352;48.626;9.238;2023-01-19T06:21:30;-0.30;99.90
736;DHT22;352;48.626;9.238;2023-01-19T06:23:57;-0.30;99.90
736;DHT22;352;48.626;9.238;2023-01-19T06:26:24;-0.30;99.90
736;DHT22;352;48.626;9.238;2023-01-19T06:28:51;-0.40;99.90
736;DHT22;352;48.626;9.238;2023-01-19T06:31:17;-0.40;99.90
736;DHT22;352;48.626;9.238;2023-01-19T06:33:46;-0.40;99.90
736;DHT22;352;48.626;9.238;2023-01-19T06:36:12;-0.50;99.90
736;DHT22;352;48.626;9.238;2023-01-19T06:38:39;-0.50;99.90
736;DHT22;352;48.626;9.238;2023-01-19T06:41:06;-0.50;99.90
736;DHT22;352;48.626;9.238;2023-01-19T06:43:32;-0.50;99.90
736;DHT22;352;48.626;9.238;2023-01-19T06:45:59;-0.60;99.90
736;DHT22;352;48.626;9.238;2023-01-19T06:48:26;-0.60;99.90
736;DHT22;352;48.626;9.238;2023-01-19T06:50:54;-0.60;99.90
736;DHT22;352;48.626;9.238;2023-01-19T06:53:21;-0.60;99.90
736;DHT22;352;48.626;9.238;2023-01-19T06:55:48;-0.60;99.90
736;DHT22;352;48.626;9.238;2023-01-19T06:58:15;-0.60;99.90
736;DHT22;352;48.626;9.238;2023-01-19T07:00:41;-0.60;99.90
736;DHT22;352;48.626;9.238;2023-01-19T07:03:16;-0.60;99.90
736;DHT22;352;48.626;9.238;2023-01-19T07:05:43;-0.70;99.90
736;DHT22;352;48.626;9.238;2023-01-19T07:08:11;-0.70;99.90
736;DHT22;352;48.626;9.238;2023-01-19T07:10:40;-0.70;99.90
736;DHT22;352;48.626;9.238;2023-01-19T07:13:06;-0.60;99.90
736;DHT22;352;48.626;9.238;2023-01-19T07:15:33;-0.60;99.90
736;DHT22;352;48.626;9.238;2023-01-19T07:18:00;-0.60;99.90
736;DHT22;352;48.626;9.238;2023-01-19T07:20:29;-0.60;99.90
736;DHT22;352;48.626;9.238;2023-01-19T07:22:56;-0.70;99.90
736;DHT22;352;48.626;9.238;2023-01-19T07:25:24;-0.70;99.90
736;DHT22;352;48.626;9.238;2023-01-19T07:27:55;-0.70;99.90
736;DHT22;352;48.626;9.238;2023-01-19T07:30:21;-0.70;99.90
736;DHT22;352;48.626;9.238;2023-01-19T07:32:48;-0.60;99.90
736;DHT22;352;48.626;9.238;2023-01-19T07:35:15;-0.60;99.90
736;DHT22;352;48.626;9.238;2023-01-19T07:37:41;-0.60;99.90
736;DHT22;352;48.626;9.238;2023-01-19T07:40:09;-0.60;99.90
736;DHT22;352;48.626;9.238;2023-01-19T07:42:37;-0.70;99.90
736;DHT22;352;48.626;9.238;2023-01-19T07:45:05;-0.60;99.90
736;DHT22;352;48.626;9.238;2023-01-19T07:47:31;-0.60;99.90
736;DHT22;352;48.626;9.238;2023-01-19T07:49:58;-0.60;99.90
736;DHT22;352;48.626;9.238;2023-01-19T07:52:25;-0.60;99.90
736;DHT22;352;48.626;9.238;2023-01-19T07:54:52;-0.60;99.90
736;DHT22;352;48.626;9.238;2023-01-19T07:57:18;-0.60;99.90
736;DHT22;352;48.626;9.238;2023-01-19T07:59:47;-0.60;99.90
736;DHT22;352;48.626;9.238;2023-01-19T08:02:14;-0.60;99.90
736;DHT22;352;48.626;9.238;2023-01-19T08:04:40;-0.30;99.90
736;DHT22;352;48.626;9.238;2023-01-19T08:07:07;-0.20;99.90
736;DHT22;352;48.626;9.238;2023-01-19T08:09:35;0.10;99.90
736;DHT22;352;48.626;9.238;2023-01-19T08:12:02;0.30;99.90
736;DHT22;352;48.626;9.238;2023-01-19T08:14:29;0.30;99.90
736;DHT22;352;48.626;9.238;2023-01-19T08:16:59;0.50;99.90
736;DHT22;352;48.626;9.238;2023-01-19T08:19:26;1.00;99.90
736;DHT22;352;48.626;9.238;2023-01-19T08:21:53;1.00;99.90
736;DHT22;352;48.626;9.238;2023-01-19T08:24:21;1.10;99.90
736;DHT22;352;48.626;9.238;2023-01-19T08:26:50;1.20;99.90
736;DHT22;352;48.626;9.238;2023-01-19T08:29:23;1.40;99.90
736;DHT22;352;48.626;9.238;2023-01-19T08:31:50;1.60;99.90
736;DHT22;352;48.626;9.238;2023-01-19T08:34:18;1.70;99.90
736;DHT22;352;48.626;9.238;2023-01-19T08:36:45;1.80;99.90
736;DHT22;352;48.626;9.238;2023-01-19T08:39:12;1.80;99.90
736;DHT22;352;48.626;9.238;2023-01-19T08:41:39;1.90;99.90
736;DHT22;352;48.626;9.238;2023-01-19T08:44:05;2.00;99.90
736;DHT22;352;48.626;9.238;2023-01-19T08:46:32;2.20;99.90
736;DHT22;352;48.626;9.238;2023-01-19T08:48:59;2.30;99.90
736;DHT22;352;48.626;9.238;2023-01-19T08:51:27;2.40;99.90
736;DHT22;352;48.626;9.238;2023-01-19T08:53:53;2.40;99.90
736;DHT22;352;48.626;9.238;2023-01-19T08:56:20;2.50;99.90
736;DHT22;352;48.626;9.238;2023-01-19T08:58:47;2.60;99.90
736;DHT22;352;48.626;9.238;2023-01-19T09:01:14;2.60;99.90
736;DHT22;352;48.626;9.238;2023-01-19T09:03:41;2.60;99.90
736;DHT22;352;48.626;9.238;2023-01-19T09:06:09;2.70;99.90
736;DHT22;352;48.626;9.238;2023-01-19T09:08:38;2.70;99.90
736;DHT22;352;48.626;9.238;2023-01-19T09:11:08;2.60;99.90
736;DHT22;352;48.626;9.238;2023-01-19T09:13:35;2.60;99.90
736;DHT22;352;48.626;9.238;2023-01-19T09:16:03;2.70;99.90
736;DHT22;352;48.626;9.238;2023-01-19T09:18:32;2.80;99.90
736;DHT22;352;48.626;9.238;2023-01-19T09:21:00;3.00;99.90
736;DHT22;352;48.626;9.238;2023-01-19T09:23:28;3.20;99.90
736;DHT22;352;48.626;9.238;2023-01-19T09:25:58;3.30;99.90
736;DHT22;352;48.626;9.238;2023-01-19T09:28:26;3.30;99.90
736;DHT22;352;48.626;9.238;2023-01-19T09:30:53;3.30;99.90
736;DHT22;352;48.626;9.238;2023-01-19T09:33:20;3.30;99.90
736;DHT22;352;48.626;9.238;2023-01-19T09:35:48;3.30;99.90
736;DHT22;352;48.626;9.238;2023-01-19T09:38:16;3.50;99.90
736;DHT22;352;48.626;9.238;2023-01-19T09:40:46;3.50;99.90
736;DHT22;352;48.626;9.238;2023-01-19T09:43:19;3.40;99.90
736;DHT22;352;48.626;9.238;2023-01-19T09:45:50;3.40;99.90
736;DHT22;352;48.626;9.238;2023-01-19T09:48:31;3.40;99.90
736;DHT22;352;48.626;9.238;2023-01-19T09:51:01;3.70;99.90
736;DHT22;352;48.626;9.238;2023-01-19T09:53:42;4.10;99.90
736;DHT22;352;48.626;9.238;2023-01-19T09:56:12;4.30;99.90
736;DHT22;352;48.626;9.238;2023-01-19T09:58:41;4.50;99.90
736;DHT22;352;48.626;9.238;2023-01-19T10:01:23;4.70;99.80
736;DHT22;352;48.626;9.238;2023-01-19T10:04:04;4.90;99.60
736;DHT22;352;48.626;9.238;2023-01-19T10:06:33;5.10;99.20
736;DHT22;352;48.626;9.238;2023-01-19T10:09:06;5.20;98.80
736;DHT22;352;48.626;9.238;2023-01-19T10:11:38;5.20;98.90
736;DHT22;352;48.626;9.238;2023-01-19T10:14:14;5.40;98.40
736;DHT22;352;48.626;9.238;2023-01-19T10:16:49;5.80;97.30
736;DHT22;352;48.626;9.238;2023-01-19T10:19:22;5.90;97.50
736;DHT22;352;48.626;9.238;2023-01-19T10:21:54;6.00;97.00
736;DHT22;352;48.626;9.238;2023-01-19T10:24:27;6.20;97.20
736;DHT22;352;48.626;9.238;2023-01-19T10:26:55;6.30;97.30
736;DHT22;352;48.626;9.238;2023-01-19T10:29:29;6.40;97.40
736;DHT22;352;48.626;9.238;2023-01-19T10:32:03;6.30;97.20
736;DHT22;352;48.626;9.238;2023-01-19T10:34:32;6.20;97.30
736;DHT22;352;48.626;9.238;2023-01-19T10:37:11;6.20;97.50
736;DHT22;352;48.626;9.238;2023-01-19T10:39:43;6.10;97.00
736;DHT22;352;48.626;9.238;2023-01-19T10:42:12;5.90;96.50
736;DHT22;352;48.626;9.238;2023-01-19T10:44:42;5.80;96.60
736;DHT22;352;48.626;9.238;2023-01-19T10:47:14;5.70;96.90
736;DHT22;352;48.626;9.238;2023-01-19T10:49:42;5.70;97.20
736;DHT22;352;48.626;9.238;2023-01-19T10:52:19;5.50;97.00
736;DHT22;352;48.626;9.238;2023-01-19T10:54:49;5.40;97.10
736;DHT22;352;48.626;9.238;2023-01-19T10:57:24;5.30;97.20
736;DHT22;352;48.626;9.238;2023-01-19T10:59:53;5.30;97.70
736;DHT22;352;48.626;9.238;2023-01-19T11:02:21;5.10;97.20
736;DHT22;352;48.626;9.238;2023-01-19T11:04:52;5.10;97.70
736;DHT22;352;48.626;9.238;2023-01-19T11:07:20;5.00;97.80
736;DHT22;352;48.626;9.238;2023-01-19T11:09:48;5.00;97.80
736;DHT22;352;48.626;9.238;2023-01-19T11:12:17;4.90;97.90
736;DHT22;352;48.626;9.238;2023-01-19T11:14:45;4.90;98.00
736;DHT22;352;48.626;9.238;2023-01-19T11:17:24;4.90;98.20
736;DHT22;352;48.626;9.238;2023-01-19T11:19:57;4.90;98.40
736;DHT22;352;48.626;9.238;2023-01-19T11:22:27;4.90;98.50
736;DHT22;352;48.626;9.238;2023-01-19T11:24:58;4.90;98.20
736;DHT22;352;48.626;9.238;2023-01-19T11:27:26;4.90;98.40
736;DHT22;352;48.626;9.238;2023-01-19T11:30:00;4.90;98.60
736;DHT22;352;48.626;9.238;2023-01-19T11:32:31;5.00;98.60
736;DHT22;352;48.626;9.238;2023-01-19T11:35:02;5.00;98.80
736;DHT22;352;48.626;9.238;2023-01-19T11:37:48;4.90;98.50
736;DHT22;352;48.626;9.238;2023-01-19T11:40:16;5.00;98.80
736;DHT22;352;48.626;9.238;2023-01-19T11:42:42;5.00;98.90
736;DHT22;352;48.626;9.238;2023-01-19T11:45:12;4.90;98.70
736;DHT22;352;48.626;9.238;2023-01-19T11:47:43;5.00;98.60
736;DHT22;352;48.626;9.238;2023-01-19T11:50:20;5.00;98.50
736;DHT22;352;48.626;9.238;2023-01-19T11:52:51;5.00;98.40
736;DHT22;352;48.626;9.238;2023-01-19T11:55:27;5.10;98.70
736;DHT22;352;48.626;9.238;2023-01-19T11:57:56;5.20;98.70
736;DHT22;352;48.626;9.238;2023-01-19T12:00:25;5.30;98.70
736;DHT22;352;48.626;9.238;2023-01-19T12:02:59;5.30;98.40
736;DHT22;352;48.626;9.238;2023-01-19T12:05:32;5.40;98.40
736;DHT22;352;48.626;9.238;2023-01-19T12:08:02;5.40;98.50
736;DHT22;352;48.626;9.238;2023-01-19T12:10:32;5.50;98.70
736;DHT22;352;48.626;9.238;2023-01-19T12:13:01;5.60;98.70
736;DHT22;352;48.626;9.238;2023-01-19T12:15:31;5.70;98.50
736;DHT22;352;48.626;9.238;2023-01-19T12:18:04;5.70;98.30
736;DHT22;352;48.626;9.238;2023-01-19T12:20:36;5.70;98.00
736;DHT22;352;48.626;9.238;2023-01-19T12:23:12;5.80;98.20
736;DHT22;352;48.626;9.238;2023-01-19T12:25:52;5.70;97.80
736;DHT22;352;48.626;9.238;2023-01-19T12:28:26;5.70;98.00
736;DHT22;352;48.626;9.238;2023-01-19T12:30:55;5.60;98.00
736;DHT22;352;48.626;9.238;2023-01-19T12:33:34;5.60;98.20
736;DHT22;352;48.626;9.238;2023-01-19T12:36:03;5.70;98.50
736;DHT22;352;48.626;9.238;2023-01-19T12:38:47;5.60;98.30
736;DHT22;352;48.626;9.238;2023-01-19T12:41:26;5.60;98.70
736;DHT22;352;48.626;9.238;2023-01-19T12:46:59;5.50;98.50
736;DHT22;352;48.626;9.238;2023-01-19T12:49:38;5.50;98.60
736;DHT22;352;48.626;9.238;2023-01-19T12:52:17;5.40;98.60
736;DHT22;352;48.626;9.238;2023-01-19T12:54:56;5.40;98.70
736;DHT22;352;48.626;9.238;2023-01-19T12:57:26;5.30;98.90
736;DHT22;352;48.626;9.238;2023-01-19T12:59:57;5.20;99.00
736;DHT22;352;48.626;9.238;2023-01-19T13:02:48;5.20;99.30
736;DHT22;352;48.626;9.238;2023-01-19T13:08:17;5.10;99.40
736;DHT22;352;48.626;9.238;2023-01-19T13:11:15;5.20;99.80
736;DHT22;352;48.626;9.238;2023-01-19T13:13:43;5.20;99.90
736;DHT22;352;48.626;9.238;2023-01-19T13:19:35;5.10;99.70
736;DHT22;352;48.626;9.238;2023-01-19T13:25:10;5.10;99.90
736;DHT22;352;48.626;9.238;2023-01-19T13:27:38;5.10;99.90
736;DHT22;352;48.626;9.238;2023-01-19T13:30:10;5.10;99.90
736;DHT22;352;48.626;9.238;2023-01-19T13:32:39;5.00;99.90
736;DHT22;352;48.626;9.238;2023-01-19T13:35:12;5.10;99.90
736;DHT22;352;48.626;9.238;2023-01-19T13:37:43;5.10;99.90
736;DHT22;352;48.626;9.238;2023-01-19T13:40:17;5.00;99.90
736;DHT22;352;48.626;9.238;2023-01-19T13:42:46;4.90;99.90
736;DHT22;352;48.626;9.238;2023-01-19T13:45:25;4.90;99.90
736;DHT22;352;48.626;9.238;2023-01-19T13:47:53;4.70;99.90
736;DHT22;352;48.626;9.238;2023-01-19T13:50:24;4.70;99.90
736;DHT22;352;48.626;9.238;2023-01-19T13:52:51;4.60;99.90
736;DHT22;352;48.626;9.238;2023-01-19T13:55:22;4.60;99.90
736;DHT22;352;48.626;9.238;2023-01-19T13:57:50;4.60;99.90
736;DHT22;352;48.626;9.238;2023-01-19T14:00:18;4.50;99.90
736;DHT22;352;48.626;9.238;2023-01-19T14:02:57;4.50;99.90
736;DHT22;352;48.626;9.238;2023-01-19T14:05:26;4.40;99.90
736;DHT22;352;48.626;9.238;2023-01-19T14:08:11;4.40;99.90
736;DHT22;352;48.626;9.238;2023-01-19T14:10:42;4.40;99.90
736;DHT22;352;48.626;9.238;2023-01-19T14:13:15;4.40;99.90
736;DHT22;352;48.626;9.238;2023-01-19T14:15:43;4.50;99.90
736;DHT22;352;48.626;9.238;2023-01-19T14:18:21;4.50;99.90
736;DHT22;352;48.626;9.238;2023-01-19T14:20:58;4.50;99.90
736;DHT22;352;48.626;9.238;2023-01-19T14:23:37;4.50;99.90
736;DHT22;352;48.626;9.238;2023-01-19T14:26:06;4.50;99.90
736;DHT22;352;48.626;9.238;2023-01-19T14:28:53;4.50;99.90
736;DHT22;352;48.626;9.238;2023-01-19T14:31:22;4.50;99.90
736;DHT22;352;48.626;9.238;2023-01-19T14:33:51;4.50;99.90
736;DHT22;352;48.626;9.238;2023-01-19T14:36:27;4.50;99.90
736;DHT22;352;48.626;9.238;2023-01-19T14:38:58;4.50;99.90
736;DHT22;352;48.626;9.238;2023-01-19T14:41:32;4.40;99.90
736;DHT22;352;48.626;9.238;2023-01-19T14:44:06;4.40;99.90
736;DHT22;352;48.626;9.238;2023-01-19T14:46:33;4.40;99.90
736;DHT22;352;48.626;9.238;2023-01-19T14:49:02;4.40;99.90
736;DHT22;352;48.626;9.238;2023-01-19T14:51:30;4.40;99.90
736;DHT22;352;48.626;9.238;2023-01-19T14:53:59;4.30;99.90
736;DHT22;352;48.626;9.238;2023-01-19T14:56:29;4.30;99.90
736;DHT22;352;48.626;9.238;2023-01-19T14:58:58;4.30;99.90
736;DHT22;352;48.626;9.238;2023-01-19T15:01:26;4.30;99.90
736;DHT22;352;48.626;9.238;2023-01-19T15:03:53;4.30;99.90
736;DHT22;352;48.626;9.238;2023-01-19T15:06:21;4.30;99.90
736;DHT22;352;48.626;9.238;2023-01-19T15:08:49;4.30;99.90
736;DHT22;352;48.626;9.238;2023-01-19T15:11:21;4.30;99.90
736;DHT22;352;48.626;9.238;2023-01-19T15:13:50;4.30;99.90
736;DHT22;352;48.626;9.238;2023-01-19T15:16:17;4.30;99.90
736;DHT22;352;48.626;9.238;2023-01-19T15:18:44;4.30;99.90
736;DHT22;352;48.626;9.238;2023-01-19T15:21:13;4.20;99.90
736;DHT22;352;48.626;9.238;2023-01-19T15:23:40;4.20;99.90
736;DHT22;352;48.626;9.238;2023-01-19T15:26:12;4.20;99.90
736;DHT22;352;48.626;9.238;2023-01-19T15:28:40;4.20;99.90
736;DHT22;352;48.626;9.238;2023-01-19T15:31:11;4.20;99.90
736;DHT22;352;48.626;9.238;2023-01-19T15:33:39;4.20;99.90
736;DHT22;352;48.626;9.238;2023-01-19T15:36:08;4.10;99.90
736;DHT22;352;48.626;9.238;2023-01-19T15:38:35;4.10;99.90
736;DHT22;352;48.626;9.238;2023-01-19T15:41:02;4.10;99.90
736;DHT22;352;48.626;9.238;2023-01-19T15:43:28;4.10;99.90
736;DHT22;352;48.626;9.238;2023-01-19T15:45:59;4.00;99.90
736;DHT22;352;48.626;9.238;2023-01-19T15:48:27;4.00;99.90
736;DHT22;352;48.626;9.238;2023-01-19T15:50:54;4.00;99.90
736;DHT22;352;48.626;9.238;2023-01-19T15:53:21;4.00;99.90
736;DHT22;352;48.626;9.238;2023-01-19T15:55:49;4.00;99.90
736;DHT22;352;48.626;9.238;2023-01-19T15:58:17;4.00;99.90
736;DHT22;352;48.626;9.238;2023-01-19T16:00:45;3.90;99.90
736;DHT22;352;48.626;9.238;2023-01-19T16:03:17;3.90;99.90
736;DHT22;352;48.626;9.238;2023-01-19T16:05:45;3.90;99.90
736;DHT22;352;48.626;9.238;2023-01-19T16:08:13;3.80;99.90
736;DHT22;352;48.626;9.238;2023-01-19T16:10:40;3.80;99.90
736;DHT22;352;48.626;9.238;2023-01-19T16:13:07;3.80;99.90
736;DHT22;352;48.626;9.238;2023-01-19T16:15:34;3.80;99.90
736;DHT22;352;48.626;9.238;2023-01-19T16:18:01;3.80;99.90
736;DHT22;352;48.626;9.238;2023-01-19T16:20:27;3.80;99.90
736;DHT22;352;48.626;9.238;2023-01-19T16:22:55;3.80;99.90
736;DHT22;352;48.626;9.238;2023-01-19T16:25:22;3.80;99.90
736;DHT22;352;48.626;9.238;2023-01-19T16:27:49;3.70;99.90
736;DHT22;352;48.626;9.238;2023-01-19T16:30:16;3.70;99.90
736;DHT22;352;48.626;9.238;2023-01-19T16:32:44;3.70;99.90
736;DHT22;352;48.626;9.238;2023-01-19T16:35:11;3.70;99.90
736;DHT22;352;48.626;9.238;2023-01-19T16:37:40;3.70;99.90
736;DHT22;352;48.626;9.238;2023-01-19T16:40:09;3.70;99.90
736;DHT22;352;48.626;9.238;2023-01-19T16:42:36;3.70;99.90
736;DHT22;352;48.626;9.238;2023-01-19T16:45:04;3.60;99.90
736;DHT22;352;48.626;9.238;2023-01-19T16:47:30;3.60;99.90
736;DHT22;352;48.626;9.238;2023-01-19T16:49:57;3.60;99.90
736;DHT22;352;48.626;9.238;2023-01-19T16:52:24;3.60;99.90
736;DHT22;352;48.626;9.238;2023-01-19T16:54:50;3.50;99.90
736;DHT22;352;48.626;9.238;2023-01-19T16:57:20;3.50;99.90
736;DHT22;352;48.626;9.238;2023-01-19T16:59:47;3.50;99.90
736;DHT22;352;48.626;9.238;2023-01-19T17:02:15;3.40;99.90
736;DHT22;352;48.626;9.238;2023-01-19T17:04:41;3.40;99.90
736;DHT22;352;48.626;9.238;2023-01-19T17:07:08;3.50;99.90
736;DHT22;352;48.626;9.238;2023-01-19T17:09:35;3.50;99.90
736;DHT22;352;48.626;9.238;2023-01-19T17:12:02;3.40;99.90
736;DHT22;352;48.626;9.238;2023-01-19T17:14:30;3.40;99.90